Time;durP1;ratioP1;P1;durP2;ratioP2;P2;SDS_P1;SDS_P2;PMS_P1;PMS_P2;Temp;Humidity;BMP_temperature;BMP_pressure;BME280_temperature;BME280_humidity;BME280_pressure;Samples;Min_cycle;Max_cycle;Signal;HPM_P1;HPM_P2
2023/04/19 00:12:52;;;;;;;11.33;8.23;;;;;;;;;;784695;22;20741;-90
2023/04/19 00:15:18;;;;;;;13.53;9.20;;;;;;;;;;5036330;28;20477;-93
2023/04/19 00:17:44;;;;;;;9.67;7.87;;;;;;;;;;5021179;28;20475;-94
2023/04/19 00:20:12;;;;;;;13.77;9.20;;;;;;;;;;5021541;28;20510;-93
2023/04/19 00:22:38;;;;;;;11.73;9.60;;;;;;;;;;5021518;28;20443;-93
2023/04/19 00:25:05;;;;;;;12.90;9.13;;;;;;;;;;5025080;28;20427;-93
2023/04/19 00:27:31;;;;;;;12.37;8.30;;;;;;;;;;5024933;28;20504;-94
2023/04/19 00:29:57;;;;;;;14.53;8.67;;;;;;;;;;5025138;28;20411;-93
2023/04/19 00:32:23;;;;;;;11.30;8.20;;;;;;;;;;5045527;28;20427;-91
2023/04/19 00:34:49;;;;;;;10.37;8.53;;;;;;;;;;5022237;28;20867;-94
2023/04/19 00:37:15;;;;;;;13.80;8.83;;;;;;;;;;5024686;28;20431;-94
2023/04/19 00:39:41;;;;;;;12.07;9.00;;;;;;;;;;5026210;28;20473;-93
2023/04/19 00:42:07;;;;;;;13.03;9.83;;;;;;;;;;5024374;28;20419;-94
2023/04/19 00:44:33;;;;;;;14.97;9.33;;;;;;;;;;5057298;28;20423;-93
2023/04/19 00:46:59;;;;;;;13.53;9.00;;;;;;;;;;5057289;28;20404;-93
2023/04/19 00:49:25;;;;;;;13.00;8.33;;;;;;;;;;5023757;28;20418;-92
2023/04/19 00:51:52;;;;;;;18.10;9.17;;;;;;;;;;5023188;28;20489;-96
2023/04/19 00:54:18;;;;;;;11.67;9.47;;;;;;;;;;5015891;28;20906;-93
2023/04/19 00:56:44;;;;;;;12.47;8.40;;;;;;;;;;5024043;28;20856;-93
2023/04/19 00:59:11;;;;;;;10.30;8.63;;;;;;;;;;5024982;28;20414;-93
2023/04/19 01:01:37;;;;;;;13.00;9.03;;;;;;;;;;5023322;28;20503;-93
2023/04/19 01:04:03;;;;;;;12.13;9.77;;;;;;;;;;5027032;28;20407;-93
2023/04/19 01:06:29;;;;;;;12.63;9.07;;;;;;;;;;5024592;28;20422;-93
2023/04/19 01:08:55;;;;;;;10.63;9.00;;;;;;;;;;5025172;28;20411;-94
2023/04/19 01:11:24;;;;;;;13.83;9.90;;;;;;;;;;5023485;28;20504;-93
2023/04/19 01:13:57;;;;;;;15.77;9.30;;;;;;;;;;5027808;28;20479;-94
2023/04/19 01:16:24;;;;;;;14.33;9.60;;;;;;;;;;5011185;28;20420;-93
2023/04/19 01:18:50;;;;;;;16.47;11.23;;;;;;;;;;5021898;28;20423;-92
2023/04/19 01:21:17;;;;;;;14.93;9.20;;;;;;;;;;5039391;28;20446;-92
2023/04/19 01:23:45;;;;;;;14.83;10.00;;;;;;;;;;5023986;28;20738;-93
2023/04/19 01:26:13;;;;;;;15.80;10.20;;;;;;;;;;5043150;28;20423;-93
2023/04/19 01:28:41;;;;;;;15.37;10.17;;;;;;;;;;5045246;28;20427;-95
2023/04/19 01:31:08;;;;;;;19.73;10.80;;;;;;;;;;5029818;28;20450;-93
2023/04/19 01:33:34;;;;;;;17.57;11.57;;;;;;;;;;5026341;28;20419;-94
2023/04/19 01:36:00;;;;;;;18.83;10.10;;;;;;;;;;5022762;28;20451;-95
2023/04/19 01:38:26;;;;;;;17.40;10.53;;;;;;;;;;5028480;28;20448;-93
2023/04/19 01:40:52;;;;;;;17.20;10.40;;;;;;;;;;5023552;28;20411;-93
2023/04/19 01:43:18;;;;;;;16.10;10.20;;;;;;;;;;5025657;28;20411;-93
2023/04/19 01:45:44;;;;;;;17.30;11.03;;;;;;;;;;5022460;28;20415;-93
2023/04/19 01:48:10;;;;;;;15.37;10.03;;;;;;;;;;5023980;28;20410;-93
2023/04/19 01:50:36;;;;;;;15.93;10.07;;;;;;;;;;5058922;28;20423;-93
2023/04/19 01:53:02;;;;;;;15.33;10.80;;;;;;;;;;5033949;28;20415;-93
2023/04/19 01:55:28;;;;;;;17.67;10.83;;;;;;;;;;5021808;28;20451;-93
2023/04/19 01:57:54;;;;;;;21.30;12.03;;;;;;;;;;5009518;28;20452;-92
2023/04/19 02:00:21;;;;;;;15.83;10.37;;;;;;;;;;5019959;28;20924;-92
2023/04/19 02:02:47;;;;;;;13.43;10.40;;;;;;;;;;5019320;28;20923;-93
2023/04/19 02:05:13;;;;;;;15.23;10.27;;;;;;;;;;5021052;28;20420;-93
2023/04/19 02:07:39;;;;;;;16.60;11.03;;;;;;;;;;5020877;28;20426;-94
2023/04/19 02:10:05;;;;;;;21.27;10.87;;;;;;;;;;5021964;28;20401;-93
2023/04/19 02:12:32;;;;;;;16.33;10.00;;;;;;;;;;5019204;28;20420;-94
2023/04/19 02:14:58;;;;;;;14.03;10.20;;;;;;;;;;5021101;28;20463;-95
2023/04/19 02:17:24;;;;;;;14.03;10.43;;;;;;;;;;5018714;28;20470;-94
2023/04/19 02:19:50;;;;;;;14.70;10.43;;;;;;;;;;5020611;28;20420;-93
2023/04/19 02:22:16;;;;;;;14.30;10.10;;;;;;;;;;5019693;28;20413;-93
2023/04/19 02:24:42;;;;;;;19.53;10.07;;;;;;;;;;5028801;28;20428;-93
2023/04/19 02:27:08;;;;;;;17.30;10.70;;;;;;;;;;5038919;28;20503;-93
2023/04/19 02:29:34;;;;;;;15.47;10.10;;;;;;;;;;5019076;28;20428;-93
2023/04/19 02:32:04;;;;;;;12.87;9.60;;;;;;;;;;5051620;28;20603;-93
2023/04/19 02:34:30;;;;;;;16.53;11.47;;;;;;;;;;5024629;28;20484;-93
2023/04/19 02:36:56;;;;;;;16.87;10.97;;;;;;;;;;5025173;28;20418;-93
2023/04/19 02:39:22;;;;;;;16.60;11.37;;;;;;;;;;5026643;28;20418;-93
2023/04/19 02:41:48;;;;;;;15.57;10.43;;;;;;;;;;5022303;28;20777;-93
2023/04/19 02:44:14;;;;;;;15.07;9.77;;;;;;;;;;5021572;28;20486;-94
2023/04/19 02:46:40;;;;;;;16.33;9.37;;;;;;;;;;5017224;28;20808;-93
2023/04/19 02:49:06;;;;;;;18.03;10.60;;;;;;;;;;5004179;28;20421;-93
2023/04/19 02:51:32;;;;;;;16.50;11.07;;;;;;;;;;5001024;28;20408;-91
2023/04/19 02:53:58;;;;;;;17.83;11.07;;;;;;;;;;5002406;28;20428;-93
2023/04/19 02:56:24;;;;;;;16.53;10.73;;;;;;;;;;4999705;28;20439;-93
2023/04/19 02:58:53;;;;;;;15.30;11.23;;;;;;;;;;5001728;28;20404;-92
2023/04/19 03:01:19;;;;;;;14.00;10.03;;;;;;;;;;5002473;28;20428;-93
2023/04/19 03:03:45;;;;;;;12.33;9.50;;;;;;;;;;4990215;28;20417;-94
2023/04/19 03:06:13;;;;;;;15.43;11.30;;;;;;;;;;5001973;28;20436;-94
2023/04/19 03:08:39;;;;;;;16.97;11.07;;;;;;;;;;5002486;28;20415;-93
2023/04/19 03:11:05;;;;;;;13.87;9.90;;;;;;;;;;5002103;28;20444;-93
2023/04/19 03:13:31;;;;;;;17.80;11.67;;;;;;;;;;4997052;28;20448;-92
2023/04/19 03:15:57;;;;;;;16.53;10.47;;;;;;;;;;4984609;28;20457;-93
2023/04/19 03:18:23;;;;;;;11.60;9.23;;;;;;;;;;5034839;28;20419;-93
2023/04/19 03:20:49;;;;;;;18.53;10.33;;;;;;;;;;5021927;28;20447;-93
2023/04/19 03:23:15;;;;;;;14.40;11.23;;;;;;;;;;5021869;28;20423;-93
2023/04/19 03:25:41;;;;;;;15.53;10.63;;;;;;;;;;5022100;28;20423;-94
2023/04/19 03:28:07;;;;;;;12.20;10.37;;;;;;;;;;5020779;28;20453;-94
2023/04/19 03:30:33;;;;;;;17.33;12.20;;;;;;;;;;5021911;28;20484;-93
2023/04/19 03:33:00;;;;;;;18.10;11.37;;;;;;;;;;5021576;28;20454;-93
2023/04/19 03:35:28;;;;;;;14.90;12.00;;;;;;;;;;5022244;28;20447;-93
2023/04/19 03:37:54;;;;;;;15.07;11.70;;;;;;;;;;5021773;28;20419;-93
2023/04/19 03:40:20;;;;;;;18.83;11.30;;;;;;;;;;5023357;28;20478;-93
2023/04/19 03:42:46;;;;;;;20.70;11.37;;;;;;;;;;5022808;28;20423;-93
2023/04/19 03:45:12;;;;;;;15.30;9.93;;;;;;;;;;5024453;28;20435;-94
2023/04/19 03:47:38;;;;;;;15.97;11.03;;;;;;;;;;5020880;28;20438;-95
2023/04/19 03:50:04;;;;;;;19.83;12.43;;;;;;;;;;5021617;28;20415;-93
2023/04/19 03:52:30;;;;;;;19.20;11.73;;;;;;;;;;5021883;28;20442;-92
2023/04/19 03:54:56;;;;;;;18.70;12.40;;;;;;;;;;5021242;28;20455;-92
2023/04/19 03:57:22;;;;;;;14.83;9.60;;;;;;;;;;5021868;28;20435;-91
2023/04/19 03:59:48;;;;;;;18.13;11.27;;;;;;;;;;5021197;28;20562;-92
2023/04/19 04:02:14;;;;;;;16.60;12.00;;;;;;;;;;5041634;28;20412;-91
2023/04/19 04:04:40;;;;;;;17.67;12.47;;;;;;;;;;5025114;28;20419;-91
2023/04/19 04:07:06;;;;;;;17.40;12.10;;;;;;;;;;5032322;28;20502;-93
2023/04/19 04:09:32;;;;;;;14.00;10.13;;;;;;;;;;5025301;28;20447;-93
2023/04/19 04:12:01;;;;;;;16.67;10.77;;;;;;;;;;5024974;28;20926;-93
2023/04/19 04:14:27;;;;;;;19.00;12.50;;;;;;;;;;5023605;28;20489;-93
2023/04/19 04:16:53;;;;;;;15.13;10.10;;;;;;;;;;5023677;28;20439;-93
2023/04/19 04:19:21;;;;;;;18.53;12.60;;;;;;;;;;5025345;28;20504;-95
2023/04/19 04:21:48;;;;;;;17.50;11.53;;;;;;;;;;5040847;28;20437;-95
2023/04/19 04:24:14;;;;;;;17.07;11.43;;;;;;;;;;5039895;28;20782;-96
2023/04/19 05:15:59;;;;;;;18.00;11.63;;;;;;;;;;5012701;28;20491;-88
2023/04/19 05:18:25;;;;;;;17.90;12.00;;;;;;;;;;4997161;28;20463;-88
2023/04/19 05:20:51;;;;;;;18.13;12.90;;;;;;;;;;5013098;28;20441;-88
2023/04/19 05:23:17;;;;;;;16.10;11.33;;;;;;;;;;5015466;28;20444;-88
2023/04/19 05:25:43;;;;;;;17.80;11.70;;;;;;;;;;4995294;28;20440;-88
2023/04/19 05:28:09;;;;;;;18.50;11.10;;;;;;;;;;5014156;28;20550;-88
2023/04/19 05:30:35;;;;;;;17.03;9.93;;;;;;;;;;4995507;28;20448;-89
2023/04/19 06:01:34;;;;;;;13.40;10.10;;;;;;;;;;4995967;28;20460;-91
2023/04/19 06:04:00;;;;;;;14.63;11.33;;;;;;;;;;4961879;28;20982;-90
2023/04/19 06:06:26;;;;;;;16.53;10.40;;;;;;;;;;4961149;28;20433;-90
2023/04/19 06:08:52;;;;;;;16.63;10.07;;;;;;;;;;4956991;28;20464;-89
2023/04/19 06:11:18;;;;;;;15.47;9.73;;;;;;;;;;4960701;28;20433;-90
2023/04/19 06:13:44;;;;;;;14.30;11.10;;;;;;;;;;4967565;28;20490;-90
2023/04/19 06:16:10;;;;;;;20.83;12.93;;;;;;;;;;4966527;28;20994;-90
2023/04/19 06:18:36;;;;;;;17.90;11.83;;;;;;;;;;4976185;28;20524;-90
2023/04/19 06:21:02;;;;;;;17.57;11.90;;;;;;;;;;4956684;28;20448;-89
2023/04/19 06:23:28;;;;;;;23.50;11.37;;;;;;;;;;4960287;28;21005;-89
2023/04/19 06:25:54;;;;;;;15.23;10.53;;;;;;;;;;4957915;28;20444;-90
2023/04/19 06:28:20;;;;;;;24.23;12.03;;;;;;;;;;4993960;28;20441;-89
2023/04/19 06:30:46;;;;;;;14.73;11.17;;;;;;;;;;4972109;28;20441;-89
2023/04/19 06:33:12;;;;;;;13.60;10.00;;;;;;;;;;4958604;28;20445;-88
2023/04/19 06:35:38;;;;;;;16.53;10.57;;;;;;;;;;4952651;28;20468;-89
2023/04/19 06:38:04;;;;;;;13.70;10.17;;;;;;;;;;4972723;28;20441;-89
2023/04/19 06:40:30;;;;;;;14.43;10.77;;;;;;;;;;4960182;28;20429;-88
2023/04/19 06:42:56;;;;;;;17.77;11.00;;;;;;;;;;4977001;28;20453;-89
2023/04/19 06:45:22;;;;;;;17.00;11.00;;;;;;;;;;4971979;28;20469;-90
2023/04/19 06:47:48;;;;;;;16.20;11.30;;;;;;;;;;4959319;28;20488;-89
2023/04/19 06:50:14;;;;;;;14.73;10.50;;;;;;;;;;4956698;28;20437;-89
2023/04/19 06:52:40;;;;;;;14.03;10.50;;;;;;;;;;4960340;28;20440;-89
2023/04/19 06:55:06;;;;;;;17.90;11.40;;;;;;;;;;4958197;28;20487;-87
2023/04/19 06:57:32;;;;;;;13.50;9.80;;;;;;;;;;4959892;28;20438;-89
2023/04/19 06:59:59;;;;;;;13.90;9.73;;;;;;;;;;4962879;28;20532;-89
2023/04/19 07:02:26;;;;;;;15.77;10.23;;;;;;;;;;4961017;28;20441;-93
2023/04/19 07:04:52;;;;;;;13.73;10.40;;;;;;;;;;4958389;28;20433;-89
2023/04/19 07:07:18;;;;;;;14.47;11.20;;;;;;;;;;4974327;28;20953;-88
2023/04/19 07:09:44;;;;;;;15.00;10.83;;;;;;;;;;4958654;28;20443;-87
2023/04/19 07:12:10;;;;;;;11.33;9.00;;;;;;;;;;4964065;28;22183;-88
2023/04/19 07:14:35;;;;;;;16.97;10.70;;;;;;;;;;4962272;28;20450;-88
2023/04/19 07:17:03;;;;;;;15.77;10.47;;;;;;;;;;4955759;28;20433;-88
2023/04/19 07:19:30;;;;;;;13.67;9.90;;;;;;;;;;4963002;28;20565;-89
2023/04/19 07:21:56;;;;;;;14.90;10.30;;;;;;;;;;4964767;28;20455;-89
2023/04/19 07:24:22;;;;;;;15.07;11.37;;;;;;;;;;4962252;28;20927;-88
2023/04/19 07:26:48;;;;;;;16.63;10.10;;;;;;;;;;4981266;28;20435;-89
2023/04/19 07:29:14;;;;;;;13.00;10.33;;;;;;;;;;4957057;28;22555;-88
2023/04/19 07:31:40;;;;;;;15.27;9.53;;;;;;;;;;4962474;28;20469;-89
2023/04/19 07:34:06;;;;;;;14.00;9.67;;;;;;;;;;4956144;28;20426;-88
2023/04/19 07:36:34;;;;;;;11.57;9.13;;;;;;;;;;4953294;28;20445;-87
2023/04/19 07:39:00;;;;;;;14.20;9.13;;;;;;;;;;4966936;28;20433;-87
2023/04/19 07:41:26;;;;;;;17.47;11.90;;;;;;;;;;4958185;28;20499;-88
2023/04/19 07:43:52;;;;;;;12.67;10.10;;;;;;;;;;4970829;28;21046;-88
2023/04/19 07:46:18;;;;;;;13.40;9.10;;;;;;;;;;4956229;28;20491;-89
2023/04/19 07:48:45;;;;;;;11.50;9.30;;;;;;;;;;4962126;28;20437;-86
2023/04/19 07:51:11;;;;;;;15.20;10.20;;;;;;;;;;4956982;28;20472;-86
2023/04/19 07:53:38;;;;;;;14.30;10.10;;;;;;;;;;4975648;28;20444;-85
2023/04/19 07:56:04;;;;;;;12.47;8.80;;;;;;;;;;4973647;28;20475;-84
2023/04/19 07:58:30;;;;;;;16.20;8.73;;;;;;;;;;4979362;28;20904;-87
2023/04/19 08:00:56;;;;;;;14.97;9.40;;;;;;;;;;4958558;28;20449;-86
2023/04/19 08:03:22;;;;;;;14.83;10.47;;;;;;;;;;4974538;28;20429;-84
2023/04/19 08:05:48;;;;;;;12.83;9.47;;;;;;;;;;4959182;28;20433;-85
2023/04/19 08:08:14;;;;;;;12.57;8.93;;;;;;;;;;4977700;28;21019;-84
2023/04/19 08:10:40;;;;;;;13.83;8.70;;;;;;;;;;4961424;28;20547;-84
2023/04/19 08:13:06;;;;;;;12.20;9.10;;;;;;;;;;4952283;28;20507;-85
2023/04/19 08:15:33;;;;;;;14.10;8.50;;;;;;;;;;4954048;28;20465;-85
2023/04/19 08:17:59;;;;;;;14.70;8.63;;;;;;;;;;4955418;28;20469;-86
2023/04/19 08:20:25;;;;;;;14.67;9.60;;;;;;;;;;4962169;28;20441;-86
2023/04/19 08:22:51;;;;;;;9.73;7.73;;;;;;;;;;4969621;28;20445;-86
2023/04/19 08:25:17;;;;;;;13.60;9.83;;;;;;;;;;4953718;28;20475;-85
2023/04/19 08:27:43;;;;;;;11.73;7.83;;;;;;;;;;4959326;28;20429;-85
2023/04/19 08:30:09;;;;;;;12.00;8.30;;;;;;;;;;4955454;28;20445;-85
2023/04/19 08:32:36;;;;;;;10.03;5.80;;;;;;;;;;4966047;28;20444;-86
2023/04/19 08:35:03;;;;;;;7.60;6.80;;;;;;;;;;4970336;28;20465;-87
2023/04/19 08:37:29;;;;;;;9.10;7.40;;;;;;;;;;4985087;28;20512;-87
2023/04/19 08:39:55;;;;;;;12.70;6.70;;;;;;;;;;4955911;28;20433;-89
2023/04/19 08:42:21;;;;;;;9.00;6.30;;;;;;;;;;4979292;28;21056;-88
2023/04/19 08:44:47;;;;;;;9.37;6.97;;;;;;;;;;4960179;28;20450;-88
2023/04/19 08:47:15;;;;;;;9.43;6.40;;;;;;;;;;4965148;28;21004;-88
2023/04/19 08:49:41;;;;;;;10.77;8.23;;;;;;;;;;4976751;28;20448;-88
2023/04/19 08:52:07;;;;;;;11.23;7.33;;;;;;;;;;4964421;28;20448;-88
2023/04/19 08:54:34;;;;;;;9.03;6.53;;;;;;;;;;4966335;28;20452;-88
2023/04/19 08:57:01;;;;;;;9.27;6.90;;;;;;;;;;4962007;28;22933;-88
2023/04/19 08:59:29;;;;;;;11.90;7.70;;;;;;;;;;4970349;28;20533;-86
2023/04/19 09:01:57;;;;;;;12.90;6.77;;;;;;;;;;4961981;28;21671;-88
2023/04/19 09:04:23;;;;;;;8.30;6.90;;;;;;;;;;4968467;28;20439;-86
2023/04/19 09:06:49;;;;;;;10.13;7.33;;;;;;;;;;4962286;28;20441;-87
2023/04/19 09:09:27;;;;;;;8.67;7.00;;;;;;;;;;4962475;28;20424;-87
2023/04/19 09:11:53;;;;;;;11.30;7.10;;;;;;;;;;4975816;28;21000;-90
2023/04/19 09:14:20;;;;;;;10.03;7.60;;;;;;;;;;4960952;28;20441;-89
2023/04/19 09:16:46;;;;;;;10.67;7.20;;;;;;;;;;4980497;28;20597;-88
2023/04/19 09:19:12;;;;;;;12.80;7.70;;;;;;;;;;4958861;28;20526;-89
2023/04/19 09:21:38;;;;;;;11.07;6.40;;;;;;;;;;4978118;28;20450;-89
2023/04/19 09:24:04;;;;;;;9.20;7.57;;;;;;;;;;4975527;28;20433;-88
2023/04/19 09:26:30;;;;;;;10.67;7.67;;;;;;;;;;4980132;28;20464;-89
2023/04/19 09:28:57;;;;;;;12.60;7.70;;;;;;;;;;4959366;28;20425;-88
2023/04/19 09:31:23;;;;;;;10.03;7.63;;;;;;;;;;4980019;28;20460;-86
2023/04/19 09:33:49;;;;;;;9.47;7.60;;;;;;;;;;4962905;28;20488;-87
2023/04/19 09:36:26;;;;;;;8.43;6.97;;;;;;;;;;4966647;28;20471;-87
2023/04/19 09:38:52;;;;;;;12.40;8.73;;;;;;;;;;4973041;28;20429;-86
2023/04/19 09:41:18;;;;;;;13.67;7.83;;;;;;;;;;4970685;28;20433;-87
2023/04/19 09:43:45;;;;;;;13.63;10.10;;;;;;;;;;4959033;28;20444;-86
2023/04/19 09:46:30;;;;;;;10.63;8.23;;;;;;;;;;4966456;28;20979;-86
2023/04/19 09:49:04;;;;;;;13.23;8.90;;;;;;;;;;4973369;28;20429;-87
2023/04/19 09:51:40;;;;;;;9.80;8.10;;;;;;;;;;4972277;28;21128;-86
2023/04/19 09:54:06;;;;;;;9.80;7.50;;;;;;;;;;4972698;28;20441;-86
2023/04/19 09:56:32;;;;;;;13.37;7.30;;;;;;;;;;4954554;28;20493;-90
2023/04/19 09:58:58;;;;;;;12.00;8.07;;;;;;;;;;4956574;28;20432;-88
2023/04/19 10:01:25;;;;;;;11.13;8.37;;;;;;;;;;4967651;28;20867;-87
2023/04/19 10:03:54;;;;;;;11.00;8.20;;;;;;;;;;4959283;28;20441;-87
2023/04/19 10:06:20;;;;;;;8.60;7.20;;;;;;;;;;4958784;28;20876;-87
2023/04/19 10:08:46;;;;;;;10.67;7.63;;;;;;;;;;4972740;28;20476;-86
2023/04/19 10:11:12;;;;;;;11.83;8.00;;;;;;;;;;4956706;28;20480;-87
2023/04/19 10:13:38;;;;;;;9.10;7.40;;;;;;;;;;4975594;28;20441;-88
2023/04/19 10:16:04;;;;;;;9.40;6.93;;;;;;;;;;4961864;28;20471;-88
2023/04/19 10:18:30;;;;;;;8.40;6.73;;;;;;;;;;4972555;28;20443;-88
2023/04/19 10:21:00;;;;;;;11.13;7.80;;;;;;;;;;4971114;28;20434;-88
2023/04/19 10:23:26;;;;;;;11.93;7.80;;;;;;;;;;4967411;28;20429;-87
2023/04/19 10:25:56;;;;;;;9.50;7.03;;;;;;;;;;4963642;28;20525;-87
2023/04/19 10:28:22;;;;;;;9.80;7.33;;;;;;;;;;4975312;28;20424;-87
2023/04/19 10:30:54;;;;;;;9.13;6.80;;;;;;;;;;4977944;28;20941;-88
2023/04/19 10:33:24;;;;;;;11.87;7.33;;;;;;;;;;4977959;28;20421;-86
2023/04/19 10:35:51;;;;;;;13.37;7.53;;;;;;;;;;4960724;28;20464;-87
2023/04/19 10:38:18;;;;;;;10.07;7.47;;;;;;;;;;4964351;28;20502;-88
2023/04/19 10:40:59;;;;;;;10.80;7.40;;;;;;;;;;4964848;28;20440;-87
2023/04/19 10:43:33;;;;;;;11.57;8.13;;;;;;;;;;4974980;28;20417;-88
2023/04/19 10:46:02;;;;;;;10.80;8.30;;;;;;;;;;4993436;28;20512;-88
2023/04/19 10:48:34;;;;;;;8.60;7.20;;;;;;;;;;4976011;28;20433;-87
2023/04/19 10:51:00;;;;;;;11.27;7.57;;;;;;;;;;4980477;28;20807;-89
2023/04/19 10:53:45;;;;;;;8.90;7.53;;;;;;;;;;4976964;28;21031;-87
2023/04/19 10:56:11;;;;;;;8.57;7.17;;;;;;;;;;4993225;28;20472;-88
2023/04/19 10:58:56;;;;;;;9.43;8.20;;;;;;;;;;4969009;28;20425;-88
2023/04/19 11:01:44;;;;;;;11.10;8.27;;;;;;;;;;4978110;28;20444;-87
2023/04/19 11:04:10;;;;;;;14.43;9.03;;;;;;;;;;4976512;28;20465;-87
2023/04/19 11:06:36;;;;;;;9.93;8.13;;;;;;;;;;4996558;28;20427;-88
2023/04/19 11:09:04;;;;;;;11.27;7.90;;;;;;;;;;4982824;28;20437;-88
2023/04/19 11:11:34;;;;;;;11.00;7.00;;;;;;;;;;4962717;28;20435;-88
2023/04/19 11:14:01;;;;;;;10.33;7.70;;;;;;;;;;4956996;28;20456;-88
2023/04/19 11:16:27;;;;;;;10.57;7.77;;;;;;;;;;4961173;28;20564;-88
2023/04/19 11:18:54;;;;;;;11.90;7.77;;;;;;;;;;4961428;28;20856;-89
2023/04/19 11:21:21;;;;;;;11.10;8.20;;;;;;;;;;4972771;28;20478;-89
2023/04/19 11:23:48;;;;;;;11.43;8.07;;;;;;;;;;4967863;28;20426;-89
2023/04/19 11:26:15;;;;;;;10.47;9.10;;;;;;;;;;4965627;28;20438;-88
2023/04/19 11:28:40;;;;;;;11.23;8.50;;;;;;;;;;4972477;28;20435;-88
2023/04/19 11:31:07;;;;;;;10.40;7.23;;;;;;;;;;4961228;28;20440;-89
2023/04/19 11:33:33;;;;;;;10.43;7.80;;;;;;;;;;4974460;28;20433;-88
2023/04/19 11:35:59;;;;;;;9.10;7.90;;;;;;;;;;4979537;28;20488;-89
2023/04/19 11:38:28;;;;;;;12.47;8.03;;;;;;;;;;4957321;28;20472;-89
2023/04/19 11:41:01;;;;;;;11.67;7.80;;;;;;;;;;4975801;28;20499;-88
2023/04/19 11:43:36;;;;;;;10.70;7.10;;;;;;;;;;4971911;28;20507;-88
2023/04/19 11:46:06;;;;;;;11.13;7.40;;;;;;;;;;4961746;28;20432;-90
2023/04/19 11:48:32;;;;;;;10.87;8.20;;;;;;;;;;4958018;28;20437;-88
2023/04/19 11:50:59;;;;;;;13.13;8.90;;;;;;;;;;4976020;28;20436;-87
2023/04/19 11:53:26;;;;;;;11.47;9.10;;;;;;;;;;4967673;28;20463;-89
2023/04/19 11:55:58;;;;;;;13.90;10.70;;;;;;;;;;4971894;28;20500;-90
2023/04/19 11:58:28;;;;;;;13.30;10.63;;;;;;;;;;4977443;28;20425;-89
2023/04/19 12:01:07;;;;;;;12.20;8.93;;;;;;;;;;4978124;28;20459;-89
2023/04/19 12:03:55;;;;;;;12.13;9.13;;;;;;;;;;4955913;28;21397;-89
2023/04/19 12:06:24;;;;;;;12.90;10.10;;;;;;;;;;4976594;28;20448;-89
2023/04/19 12:08:51;;;;;;;13.03;9.80;;;;;;;;;;4960727;28;20531;-89
2023/04/19 12:11:23;;;;;;;12.27;10.30;;;;;;;;;;4961944;28;20523;-89
2023/04/19 12:13:55;;;;;;;14.80;10.70;;;;;;;;;;4955343;28;20433;-89
2023/04/19 12:16:27;;;;;;;15.27;11.03;;;;;;;;;;4959739;28;20522;-89
2023/04/19 12:18:53;;;;;;;19.70;12.67;;;;;;;;;;4991970;28;20432;-88
2023/04/19 12:21:26;;;;;;;18.10;11.57;;;;;;;;;;4963145;28;20430;-89
2023/04/19 12:23:59;;;;;;;19.07;12.30;;;;;;;;;;4962371;28;20437;-89
2023/04/19 12:26:28;;;;;;;14.07;11.53;;;;;;;;;;4974844;28;20455;-89
2023/04/19 12:28:54;;;;;;;15.87;11.20;;;;;;;;;;4979375;28;20417;-89
2023/04/19 12:31:20;;;;;;;17.17;12.87;;;;;;;;;;4965928;28;20536;-88
2023/04/19 12:33:46;;;;;;;21.67;13.17;;;;;;;;;;4965104;28;20481;-90
2023/04/19 12:36:12;;;;;;;16.40;11.83;;;;;;;;;;4965421;28;20453;-90
2023/04/19 12:38:38;;;;;;;19.10;12.63;;;;;;;;;;4965694;28;20433;-90
2023/04/19 12:41:04;;;;;;;19.87;12.47;;;;;;;;;;4957720;28;20447;-89
2023/04/19 12:43:31;;;;;;;16.67;12.00;;;;;;;;;;4963523;28;20456;-90
2023/04/19 12:45:57;;;;;;;16.53;12.80;;;;;;;;;;4963532;28;20455;-90
2023/04/19 12:48:23;;;;;;;19.67;13.07;;;;;;;;;;4962896;28;20432;-90
2023/04/19 12:50:49;;;;;;;18.53;13.40;;;;;;;;;;4962919;28;20483;-90
2023/04/19 12:53:15;;;;;;;18.57;12.87;;;;;;;;;;4964533;28;20438;-90
2023/04/19 12:55:46;;;;;;;22.00;13.90;;;;;;;;;;4963569;28;21007;-90
2023/04/19 12:58:12;;;;;;;23.27;13.37;;;;;;;;;;4965593;28;20520;-91
2023/04/19 13:00:38;;;;;;;21.60;13.90;;;;;;;;;;4962848;28;20541;-91
2023/04/19 13:03:04;;;;;;;20.77;13.20;;;;;;;;;;4961806;28;20436;-90
2023/04/19 13:05:30;;;;;;;22.13;13.20;;;;;;;;;;4961530;28;20529;-89
2023/04/19 13:07:56;;;;;;;23.83;15.03;;;;;;;;;;4977165;28;20489;-89
2023/04/19 13:10:22;;;;;;;22.70;13.23;;;;;;;;;;4963554;28;20437;-89
2023/04/19 13:12:48;;;;;;;22.47;14.00;;;;;;;;;;4964783;28;20436;-90
2023/04/19 13:15:14;;;;;;;25.13;14.03;;;;;;;;;;4962411;28;20460;-89
2023/04/19 13:17:40;;;;;;;22.57;14.00;;;;;;;;;;4970387;28;20433;-88
2023/04/19 13:20:06;;;;;;;19.73;13.27;;;;;;;;;;4963532;28;20440;-90
2023/04/19 13:22:32;;;;;;;18.20;12.93;;;;;;;;;;4963821;28;20667;-90
2023/04/19 13:24:58;;;;;;;19.60;12.30;;;;;;;;;;4962607;28;20429;-89
2023/04/19 13:27:24;;;;;;;18.17;11.47;;;;;;;;;;4964014;28;20433;-89
2023/04/19 13:29:50;;;;;;;16.17;12.17;;;;;;;;;;4964039;28;20433;-90
2023/04/19 13:32:16;;;;;;;19.77;12.07;;;;;;;;;;4962249;28;21112;-89
2023/04/19 13:34:42;;;;;;;20.43;12.20;;;;;;;;;;4964772;28;20508;-88
2023/04/19 13:37:08;;;;;;;19.80;11.10;;;;;;;;;;4960415;28;20437;-90
2023/04/19 13:39:34;;;;;;;25.00;12.60;;;;;;;;;;4971803;28;21002;-89
2023/04/19 13:42:00;;;;;;;19.60;12.57;;;;;;;;;;4977617;28;20525;-89
2023/04/19 13:44:27;;;;;;;16.90;10.73;;;;;;;;;;4973791;28;20437;-90
2023/04/19 13:46:54;;;;;;;13.60;9.70;;;;;;;;;;4964009;28;20615;-89
2023/04/19 13:49:20;;;;;;;13.33;10.13;;;;;;;;;;4976892;28;20437;-89
2023/04/19 13:51:46;;;;;;;19.77;11.70;;;;;;;;;;4963193;28;20516;-89
2023/04/19 13:54:12;;;;;;;12.57;9.13;;;;;;;;;;4962925;28;20445;-90
2023/04/19 13:56:38;;;;;;;15.70;10.33;;;;;;;;;;4969396;28;20564;-89
2023/04/19 13:59:04;;;;;;;13.90;12.20;;;;;;;;;;4960732;28;20457;-88
2023/04/19 14:01:31;;;;;;;17.00;11.60;;;;;;;;;;4963074;28;20433;-89
2023/04/19 14:03:57;;;;;;;15.90;10.23;;;;;;;;;;4965250;28;20436;-89
2023/04/19 14:06:23;;;;;;;12.70;9.10;;;;;;;;;;4962470;28;20433;-89
2023/04/19 14:08:49;;;;;;;15.17;10.33;;;;;;;;;;4962266;28;20512;-88
2023/04/19 14:11:15;;;;;;;17.30;11.00;;;;;;;;;;4982587;28;20429;-89
2023/04/19 14:13:41;;;;;;;15.03;9.60;;;;;;;;;;4976407;28;20437;-88
2023/04/19 14:16:07;;;;;;;14.97;9.47;;;;;;;;;;4964522;28;20476;-89
2023/04/19 14:18:33;;;;;;;16.53;9.90;;;;;;;;;;4991302;28;20438;-89
2023/04/19 14:20:59;;;;;;;12.73;8.60;;;;;;;;;;4976278;28;20433;-89
2023/04/19 14:23:26;;;;;;;14.37;11.00;;;;;;;;;;4965286;28;20444;-89
2023/04/19 14:25:52;;;;;;;13.10;9.90;;;;;;;;;;4959494;28;20982;-89
2023/04/19 14:28:19;;;;;;;10.10;8.93;;;;;;;;;;4963868;28;20445;-91
2023/04/19 14:30:45;;;;;;;11.47;9.37;;;;;;;;;;4971705;28;20507;-90
2023/04/19 14:33:11;;;;;;;11.60;8.33;;;;;;;;;;4966640;28;20435;-90
2023/04/19 14:35:37;;;;;;;13.40;9.73;;;;;;;;;;4961766;28;20468;-88
2023/04/19 14:38:03;;;;;;;11.60;9.40;;;;;;;;;;4967989;28;20979;-88
2023/04/19 14:40:29;;;;;;;14.40;10.20;;;;;;;;;;4961137;28;20430;-89
2023/04/19 14:42:55;;;;;;;14.73;11.47;;;;;;;;;;4967326;28;20510;-89
2023/04/19 14:45:21;;;;;;;12.60;10.07;;;;;;;;;;4963448;28;21107;-89
2023/04/19 14:47:50;;;;;;;11.00;9.10;;;;;;;;;;4991215;28;20451;-91
2023/04/19 14:50:17;;;;;;;12.83;9.53;;;;;;;;;;4981434;28;21008;-91
2023/04/19 14:52:43;;;;;;;13.50;10.33;;;;;;;;;;4963723;28;20458;-89
2023/04/19 14:55:09;;;;;;;13.60;9.70;;;;;;;;;;4964798;28;20465;-89
2023/04/19 14:57:35;;;;;;;13.07;10.77;;;;;;;;;;4964073;28;20470;-89
2023/04/19 15:00:01;;;;;;;12.10;10.20;;;;;;;;;;4974157;28;20456;-88
2023/04/19 15:02:30;;;;;;;12.60;8.90;;;;;;;;;;4982040;28;20944;-92
2023/04/19 15:04:56;;;;;;;12.63;9.60;;;;;;;;;;4976833;28;20494;-91
2023/04/19 15:07:22;;;;;;;15.53;8.07;;;;;;;;;;4965096;28;20976;-91
2023/04/19 15:09:48;;;;;;;14.57;10.10;;;;;;;;;;4965617;28;20462;-93
2023/04/19 15:12:14;;;;;;;11.93;9.57;;;;;;;;;;4963091;28;20430;-92
2023/04/19 15:14:40;;;;;;;11.47;8.73;;;;;;;;;;4955509;28;20801;-92
2023/04/19 15:17:07;;;;;;;17.53;12.73;;;;;;;;;;4957413;28;20848;-92
2023/04/19 15:19:33;;;;;;;14.30;10.53;;;;;;;;;;4938197;29;20435;-93
2023/04/19 15:21:59;;;;;;;12.53;9.93;;;;;;;;;;4929440;29;20431;-92
2023/04/19 15:24:25;;;;;;;13.40;9.30;;;;;;;;;;4921827;29;20982;-92
2023/04/19 15:26:52;;;;;;;12.80;10.07;;;;;;;;;;4924090;29;20435;-91
2023/04/19 15:29:18;;;;;;;16.60;10.70;;;;;;;;;;4925416;29;20531;-93
2023/04/19 15:31:44;;;;;;;10.93;9.57;;;;;;;;;;4919953;29;20842;-90
2023/04/19 15:34:10;;;;;;;12.63;8.53;;;;;;;;;;4921392;29;20447;-92
2023/04/19 15:36:36;;;;;;;10.50;9.30;;;;;;;;;;4927101;29;20482;-90
2023/04/19 15:39:02;;;;;;;16.43;9.77;;;;;;;;;;4904654;29;20440;-92
2023/04/19 15:41:28;;;;;;;12.10;8.97;;;;;;;;;;4916841;29;20527;-90
2023/04/19 15:43:55;;;;;;;11.67;8.10;;;;;;;;;;4925224;29;20478;-91
2023/04/19 15:46:21;;;;;;;8.70;7.80;;;;;;;;;;4922938;29;20862;-91
2023/04/19 15:48:47;;;;;;;12.17;8.40;;;;;;;;;;4950015;29;20494;-90
2023/04/19 15:51:16;;;;;;;9.93;8.83;;;;;;;;;;4942915;29;20519;-93